North Bonneville, WA (98639)

7:14 PM PDT on June 01, 2015 (GMT -0700)
Stevenson, WA | | Change Station
CLOSE
Current Station
Personal Weather Station
Location: Stevenson, WA
Elevation: 279 ft
Nearby Weather Stations

Elev 279 ft 45.70 °N, 121.90 °W | Updated 1 minute ago

Overcast
Overcast
62.4 °F
Feels Like 62.4 °F
N
4.0
Wind Variable Wind from West
Gusts 4.9 mph

Today
High -- | Low -- °F
--% Chance of Precip.
Yesterday
High -- | Low -- °F
Precip. -- in
5:22 AM 8:49 PM
Full, 100% visible
Pressure 29.94 in
Visibility 10.0 miles
Clouds Few 1400 ft
Mostly Cloudy 2600 ft
Overcast 3600 ft
Dew Point 58 °F
Humidity 87%
Rainfall 0.20 in
Snow Depth Not available.
UV 1.0 out of 12
Pollen 6.30 out of 12
Air Quality Not available.
Flu Activity Sporadic
METAR KTTD 020153Z 26003KT 10SM -RA FEW014 BKN026 OVC036 16/13 A2994 RMK AO2 SLP139 P0003 T01610128

More Conditions Fewer Conditions

Pressure 29.94 in
Visibility 10.0 miles
Clouds Few 1400 ft
Mostly Cloudy 2600 ft
Overcast 3600 ft
Dew Point 58 °F
Humidity 87%
Rainfall 0.20 in
Snow Depth Not available.
UV 1.0 out of 12
Pollen 6.30 out of 12
Air Quality Not available.
Flu Activity Sporadic
METAR KTTD 020153Z 26003KT 10SM -RA FEW014 BKN026 OVC036 16/13 A2994 RMK AO2 SLP139 P0003 T01610128

More Conditions Fewer Conditions

10-Day Weather Forecast

Almanac

Astronomy

Jun. 01, 2015 Rise Set
Actual Time
Civil Twilight
Nautical Twilight
Astronomical Twilight
Moon
Length of Visible Light
Length of Day
Tomorrow will be .
, % of the Moon is Illuminated

Today's Extremes

State Highs State Lows

Community

WunderPhotos

Upload Photos

1,825,857 photos uploaded!

WunderBlogs® & News

Nearby

Air Quality

  Air Quality AQ Index Pollutant
Not available.

Snow Depth

Station Depth Elevation

Earthquake Activity

City Distance Mag. Time & Date
Minimum magnitude displayed is 2.5.

Coastal Water Temperatures

Place Temperature

Stations

Nearby Weather Stations

Station Location Temp. Windchill Dew Point Humidity Wind Precip. Elev Updated Type